sensor_id;sensor_type;location;lat;lon;timestamp;P1;durP1;ratioP1;P2;durP2;ratioP2
21239;SDS011;10778;48.962;9.018;2023-03-20T00:01:24;8.77;;;6.95;;
21239;SDS011;10778;48.962;9.018;2023-03-20T00:03:54;8.25;;;6.72;;
21239;SDS011;10778;48.962;9.018;2023-03-20T00:06:22;7.38;;;6.13;;
21239;SDS011;10778;48.962;9.018;2023-03-20T00:08:53;8.98;;;7.45;;
21239;SDS011;10778;48.962;9.018;2023-03-20T00:13:59;10.40;;;8.30;;
21239;SDS011;10778;48.962;9.018;2023-03-20T00:16:45;8.57;;;7.30;;
21239;SDS011;10778;48.962;9.018;2023-03-20T00:19:14;8.40;;;6.45;;
21239;SDS011;10778;48.962;9.018;2023-03-20T00:21:40;8.70;;;6.95;;
21239;SDS011;10778;48.962;9.018;2023-03-20T00:24:07;8.13;;;7.15;;
21239;SDS011;10778;48.962;9.018;2023-03-20T00:26:33;8.73;;;7.53;;
21239;SDS011;10778;48.962;9.018;2023-03-20T00:29:01;9.15;;;7.82;;
21239;SDS011;10778;48.962;9.018;2023-03-20T00:31:36;8.70;;;6.93;;
21239;SDS011;10778;48.962;9.018;2023-03-20T00:34:10;7.63;;;6.70;;
21239;SDS011;10778;48.962;9.018;2023-03-20T00:36:38;7.63;;;5.90;;
21239;SDS011;10778;48.962;9.018;2023-03-20T00:39:04;6.80;;;5.30;;
21239;SDS011;10778;48.962;9.018;2023-03-20T00:46:38;4.93;;;3.95;;
21239;SDS011;10778;48.962;9.018;2023-03-20T00:49:05;4.13;;;3.55;;
21239;SDS011;10778;48.962;9.018;2023-03-20T00:51:31;4.43;;;3.50;;
21239;SDS011;10778;48.962;9.018;2023-03-20T00:53:57;3.97;;;3.53;;
21239;SDS011;10778;48.962;9.018;2023-03-20T00:56:31;4.55;;;4.00;;
21239;SDS011;10778;48.962;9.018;2023-03-20T00:59:00;4.20;;;3.78;;
21239;SDS011;10778;48.962;9.018;2023-03-20T01:01:28;4.80;;;3.60;;
21239;SDS011;10778;48.962;9.018;2023-03-20T01:03:57;4.03;;;3.20;;
21239;SDS011;10778;48.962;9.018;2023-03-20T01:06:24;4.30;;;3.10;;
21239;SDS011;10778;48.962;9.018;2023-03-20T01:08:50;4.00;;;3.40;;
21239;SDS011;10778;48.962;9.018;2023-03-20T01:11:21;4.13;;;3.40;;
21239;SDS011;10778;48.962;9.018;2023-03-20T01:13:48;3.63;;;3.15;;
21239;SDS011;10778;48.962;9.018;2023-03-20T01:16:18;4.03;;;3.50;;
21239;SDS011;10778;48.962;9.018;2023-03-20T01:18:47;4.15;;;3.38;;
21239;SDS011;10778;48.962;9.018;2023-03-20T01:21:14;4.10;;;3.25;;
21239;SDS011;10778;48.962;9.018;2023-03-20T01:23:40;3.50;;;3.20;;
21239;SDS011;10778;48.962;9.018;2023-03-20T01:26:14;5.03;;;3.83;;
21239;SDS011;10778;48.962;9.018;2023-03-20T01:28:47;4.03;;;3.60;;
21239;SDS011;10778;48.962;9.018;2023-03-20T01:31:15;5.78;;;3.88;;
21239;SDS011;10778;48.962;9.018;2023-03-20T01:33:42;4.38;;;3.63;;
21239;SDS011;10778;48.962;9.018;2023-03-20T01:36:10;4.50;;;4.05;;
21239;SDS011;10778;48.962;9.018;2023-03-20T01:38:38;4.75;;;3.80;;
21239;SDS011;10778;48.962;9.018;2023-03-20T01:41:11;4.47;;;3.88;;
21239;SDS011;10778;48.962;9.018;2023-03-20T01:43:39;4.90;;;4.40;;
21239;SDS011;10778;48.962;9.018;2023-03-20T01:51:17;6.05;;;4.40;;
21239;SDS011;10778;48.962;9.018;2023-03-20T01:53:58;7.85;;;5.95;;
21239;SDS011;10778;48.962;9.018;2023-03-20T01:56:29;7.13;;;5.90;;
21239;SDS011;10778;48.962;9.018;2023-03-20T01:59:02;6.47;;;4.85;;
21239;SDS011;10778;48.962;9.018;2023-03-20T02:01:33;4.68;;;3.88;;
21239;SDS011;10778;48.962;9.018;2023-03-20T02:04:02;4.10;;;3.70;;
21239;SDS011;10778;48.962;9.018;2023-03-20T02:06:47;4.18;;;3.55;;
21239;SDS011;10778;48.962;9.018;2023-03-20T02:09:25;4.00;;;3.60;;
21239;SDS011;10778;48.962;9.018;2023-03-20T02:11:51;4.65;;;3.20;;
21239;SDS011;10778;48.962;9.018;2023-03-20T02:14:19;3.58;;;2.92;;
21239;SDS011;10778;48.962;9.018;2023-03-20T02:16:55;4.22;;;2.97;;
21239;SDS011;10778;48.962;9.018;2023-03-20T02:19:43;3.30;;;2.80;;
21239;SDS011;10778;48.962;9.018;2023-03-20T02:25:13;3.10;;;2.60;;
21239;SDS011;10778;48.962;9.018;2023-03-20T02:27:57;3.90;;;2.90;;
21239;SDS011;10778;48.962;9.018;2023-03-20T02:30:45;3.55;;;3.10;;
21239;SDS011;10778;48.962;9.018;2023-03-20T02:33:27;4.93;;;3.65;;
21239;SDS011;10778;48.962;9.018;2023-03-20T02:36:19;6.25;;;4.20;;
21239;SDS011;10778;48.962;9.018;2023-03-20T02:41:29;4.82;;;3.70;;
21239;SDS011;10778;48.962;9.018;2023-03-20T02:57:41;3.50;;;3.13;;
21239;SDS011;10778;48.962;9.018;2023-03-20T03:00:26;3.03;;;2.72;;
21239;SDS011;10778;48.962;9.018;2023-03-20T03:03:06;3.45;;;3.00;;
21239;SDS011;10778;48.962;9.018;2023-03-20T03:08:27;4.38;;;3.38;;
21239;SDS011;10778;48.962;9.018;2023-03-20T03:11:00;3.05;;;2.42;;
21239;SDS011;10778;48.962;9.018;2023-03-20T03:13:31;3.35;;;2.38;;
21239;SDS011;10778;48.962;9.018;2023-03-20T03:16:04;4.15;;;2.20;;
21239;SDS011;10778;48.962;9.018;2023-03-20T03:18:35;6.47;;;2.35;;
21239;SDS011;10778;48.962;9.018;2023-03-20T03:21:06;2.38;;;2.17;;
21239;SDS011;10778;48.962;9.018;2023-03-20T03:23:41;3.20;;;2.35;;
21239;SDS011;10778;48.962;9.018;2023-03-20T03:26:12;2.65;;;2.13;;
21239;SDS011;10778;48.962;9.018;2023-03-20T03:28:44;4.32;;;2.08;;
21239;SDS011;10778;48.962;9.018;2023-03-20T03:31:15;2.28;;;1.70;;
21239;SDS011;10778;48.962;9.018;2023-03-20T03:33:52;2.30;;;1.75;;
21239;SDS011;10778;48.962;9.018;2023-03-20T03:36:30;2.70;;;2.05;;
21239;SDS011;10778;48.962;9.018;2023-03-20T03:38:59;2.75;;;1.80;;
21239;SDS011;10778;48.962;9.018;2023-03-20T03:41:40;2.20;;;1.80;;
21239;SDS011;10778;48.962;9.018;2023-03-20T03:44:12;2.03;;;1.77;;
21239;SDS011;10778;48.962;9.018;2023-03-20T03:49:25;2.50;;;1.85;;
21239;SDS011;10778;48.962;9.018;2023-03-20T03:51:55;2.00;;;1.77;;
21239;SDS011;10778;48.962;9.018;2023-03-20T03:54:27;2.75;;;2.28;;
21239;SDS011;10778;48.962;9.018;2023-03-20T03:57:35;2.78;;;1.90;;
21239;SDS011;10778;48.962;9.018;2023-03-20T04:00:09;3.38;;;2.05;;
21239;SDS011;10778;48.962;9.018;2023-03-20T04:02:43;4.55;;;2.58;;
21239;SDS011;10778;48.962;9.018;2023-03-20T04:05:12;2.85;;;2.25;;
21239;SDS011;10778;48.962;9.018;2023-03-20T04:07:43;3.25;;;2.63;;
21239;SDS011;10778;48.962;9.018;2023-03-20T04:10:10;2.85;;;2.42;;
21239;SDS011;10778;48.962;9.018;2023-03-20T04:12:43;3.33;;;2.42;;
21239;SDS011;10778;48.962;9.018;2023-03-20T04:15:11;4.53;;;2.80;;
21239;SDS011;10778;48.962;9.018;2023-03-20T04:17:38;3.80;;;2.70;;
21239;SDS011;10778;48.962;9.018;2023-03-20T04:20:06;3.03;;;2.60;;
21239;SDS011;10778;48.962;9.018;2023-03-20T04:22:34;4.18;;;2.58;;
21239;SDS011;10778;48.962;9.018;2023-03-20T04:25:09;3.88;;;2.80;;
21239;SDS011;10778;48.962;9.018;2023-03-20T04:27:40;3.53;;;2.60;;
21239;SDS011;10778;48.962;9.018;2023-03-20T04:30:12;4.78;;;2.85;;
21239;SDS011;10778;48.962;9.018;2023-03-20T04:33:04;3.47;;;2.80;;
21239;SDS011;10778;48.962;9.018;2023-03-20T04:35:43;4.78;;;2.97;;
21239;SDS011;10778;48.962;9.018;2023-03-20T04:38:12;3.72;;;3.03;;
21239;SDS011;10778;48.962;9.018;2023-03-20T04:40:40;4.40;;;3.17;;
21239;SDS011;10778;48.962;9.018;2023-03-20T04:43:07;6.05;;;3.33;;
21239;SDS011;10778;48.962;9.018;2023-03-20T04:45:33;4.13;;;3.28;;
21239;SDS011;10778;48.962;9.018;2023-03-20T04:48:00;4.10;;;3.53;;
21239;SDS011;10778;48.962;9.018;2023-03-20T04:50:26;4.05;;;3.33;;
21239;SDS011;10778;48.962;9.018;2023-03-20T04:52:53;4.00;;;3.50;;
21239;SDS011;10778;48.962;9.018;2023-03-20T04:55:19;5.93;;;3.70;;
21239;SDS011;10778;48.962;9.018;2023-03-20T04:57:47;4.40;;;3.45;;
21239;SDS011;10778;48.962;9.018;2023-03-20T05:00:13;4.80;;;3.60;;
21239;SDS011;10778;48.962;9.018;2023-03-20T05:02:40;4.72;;;3.55;;
21239;SDS011;10778;48.962;9.018;2023-03-20T05:05:06;5.40;;;4.05;;
21239;SDS011;10778;48.962;9.018;2023-03-20T05:07:34;4.13;;;3.13;;
21239;SDS011;10778;48.962;9.018;2023-03-20T05:10:05;3.88;;;2.85;;
21239;SDS011;10778;48.962;9.018;2023-03-20T05:12:41;3.90;;;3.17;;
21239;SDS011;10778;48.962;9.018;2023-03-20T05:15:25;3.83;;;3.20;;
21239;SDS011;10778;48.962;9.018;2023-03-20T05:18:13;4.72;;;3.60;;
21239;SDS011;10778;48.962;9.018;2023-03-20T05:21:11;4.13;;;3.55;;
21239;SDS011;10778;48.962;9.018;2023-03-20T05:23:58;4.85;;;3.45;;
21239;SDS011;10778;48.962;9.018;2023-03-20T05:26:39;4.45;;;3.25;;
21239;SDS011;10778;48.962;9.018;2023-03-20T05:29:27;5.97;;;3.70;;
21239;SDS011;10778;48.962;9.018;2023-03-20T05:32:18;4.55;;;3.20;;
21239;SDS011;10778;48.962;9.018;2023-03-20T05:35:07;3.65;;;3.15;;
21239;SDS011;10778;48.962;9.018;2023-03-20T05:37:59;4.65;;;3.20;;
21239;SDS011;10778;48.962;9.018;2023-03-20T05:40:57;3.83;;;3.17;;
21239;SDS011;10778;48.962;9.018;2023-03-20T05:43:50;3.97;;;3.20;;
21239;SDS011;10778;48.962;9.018;2023-03-20T05:46:25;3.50;;;3.15;;
21239;SDS011;10778;48.962;9.018;2023-03-20T05:48:51;6.20;;;2.97;;
21239;SDS011;10778;48.962;9.018;2023-03-20T05:51:29;3.88;;;3.22;;
21239;SDS011;10778;48.962;9.018;2023-03-20T05:54:21;3.83;;;3.30;;
21239;SDS011;10778;48.962;9.018;2023-03-20T05:57:16;3.85;;;3.20;;
21239;SDS011;10778;48.962;9.018;2023-03-20T05:59:52;7.88;;;4.68;;
21239;SDS011;10778;48.962;9.018;2023-03-20T06:02:36;4.35;;;3.33;;
21239;SDS011;10778;48.962;9.018;2023-03-20T06:05:14;4.30;;;3.17;;
21239;SDS011;10778;48.962;9.018;2023-03-20T06:07:46;3.72;;;3.13;;
21239;SDS011;10778;48.962;9.018;2023-03-20T06:10:14;5.32;;;3.40;;
21239;SDS011;10778;48.962;9.018;2023-03-20T06:12:40;3.53;;;2.90;;
21239;SDS011;10778;48.962;9.018;2023-03-20T06:15:07;3.80;;;2.70;;
21239;SDS011;10778;48.962;9.018;2023-03-20T06:17:38;3.53;;;2.90;;
21239;SDS011;10778;48.962;9.018;2023-03-20T06:20:04;3.45;;;3.15;;
21239;SDS011;10778;48.962;9.018;2023-03-20T06:22:31;4.75;;;3.10;;
21239;SDS011;10778;48.962;9.018;2023-03-20T06:24:57;5.00;;;2.78;;
21239;SDS011;10778;48.962;9.018;2023-03-20T06:27:30;4.07;;;2.97;;
21239;SDS011;10778;48.962;9.018;2023-03-20T06:29:57;3.38;;;2.30;;
21239;SDS011;10778;48.962;9.018;2023-03-20T06:32:29;3.45;;;2.40;;
21239;SDS011;10778;48.962;9.018;2023-03-20T06:34:57;8.20;;;4.20;;
21239;SDS011;10778;48.962;9.018;2023-03-20T06:37:24;5.32;;;3.90;;
21239;SDS011;10778;48.962;9.018;2023-03-20T06:39:57;5.05;;;3.60;;
21239;SDS011;10778;48.962;9.018;2023-03-20T06:42:23;4.90;;;3.20;;
21239;SDS011;10778;48.962;9.018;2023-03-20T06:44:50;8.13;;;2.50;;
21239;SDS011;10778;48.962;9.018;2023-03-20T06:47:39;5.15;;;2.85;;
21239;SDS011;10778;48.962;9.018;2023-03-20T06:50:05;5.13;;;2.20;;
21239;SDS011;10778;48.962;9.018;2023-03-20T06:52:32;2.85;;;2.05;;
21239;SDS011;10778;48.962;9.018;2023-03-20T06:55:27;2.30;;;1.83;;
21239;SDS011;10778;48.962;9.018;2023-03-20T06:57:53;1.92;;;1.70;;
21239;SDS011;10778;48.962;9.018;2023-03-20T07:00:20;2.45;;;2.00;;
21239;SDS011;10778;48.962;9.018;2023-03-20T07:02:46;2.60;;;2.00;;
21239;SDS011;10778;48.962;9.018;2023-03-20T07:05:15;1.98;;;1.63;;
21239;SDS011;10778;48.962;9.018;2023-03-20T07:07:41;2.00;;;1.80;;
21239;SDS011;10778;48.962;9.018;2023-03-20T07:10:07;4.45;;;2.38;;
21239;SDS011;10778;48.962;9.018;2023-03-20T07:12:35;5.80;;;2.65;;
21239;SDS011;10778;48.962;9.018;2023-03-20T07:15:01;4.07;;;2.90;;
21239;SDS011;10778;48.962;9.018;2023-03-20T07:17:28;4.47;;;3.08;;
21239;SDS011;10778;48.962;9.018;2023-03-20T07:19:55;4.57;;;3.50;;
21239;SDS011;10778;48.962;9.018;2023-03-20T07:22:24;5.40;;;3.70;;
21239;SDS011;10778;48.962;9.018;2023-03-20T07:25:02;6.70;;;4.50;;
21239;SDS011;10778;48.962;9.018;2023-03-20T07:27:28;7.38;;;4.25;;
21239;SDS011;10778;48.962;9.018;2023-03-20T07:29:55;7.25;;;4.70;;
21239;SDS011;10778;48.962;9.018;2023-03-20T07:32:22;5.50;;;4.25;;
21239;SDS011;10778;48.962;9.018;2023-03-20T07:34:50;5.00;;;4.50;;
21239;SDS011;10778;48.962;9.018;2023-03-20T07:37:18;7.85;;;5.00;;
21239;SDS011;10778;48.962;9.018;2023-03-20T07:39:55;5.22;;;4.57;;
21239;SDS011;10778;48.962;9.018;2023-03-20T07:42:39;8.30;;;5.47;;
21239;SDS011;10778;48.962;9.018;2023-03-20T07:45:12;8.23;;;5.35;;
21239;SDS011;10778;48.962;9.018;2023-03-20T07:47:40;7.88;;;5.53;;
21239;SDS011;10778;48.962;9.018;2023-03-20T07:50:07;8.63;;;5.80;;
21239;SDS011;10778;48.962;9.018;2023-03-20T07:52:33;7.40;;;6.18;;
21239;SDS011;10778;48.962;9.018;2023-03-20T07:54:59;7.57;;;5.43;;
21239;SDS011;10778;48.962;9.018;2023-03-20T07:57:25;8.00;;;6.00;;
21239;SDS011;10778;48.962;9.018;2023-03-20T07:59:51;6.80;;;5.63;;
21239;SDS011;10778;48.962;9.018;2023-03-20T08:02:17;9.57;;;5.90;;
21239;SDS011;10778;48.962;9.018;2023-03-20T08:04:43;8.65;;;6.35;;
21239;SDS011;10778;48.962;9.018;2023-03-20T08:07:10;8.90;;;6.47;;
21239;SDS011;10778;48.962;9.018;2023-03-20T08:09:36;8.52;;;7.10;;
21239;SDS011;10778;48.962;9.018;2023-03-20T08:12:02;9.00;;;7.15;;
21239;SDS011;10778;48.962;9.018;2023-03-20T08:14:29;8.93;;;7.32;;
21239;SDS011;10778;48.962;9.018;2023-03-20T08:16:55;9.40;;;8.07;;
21239;SDS011;10778;48.962;9.018;2023-03-20T08:22:40;11.13;;;8.30;;
21239;SDS011;10778;48.962;9.018;2023-03-20T08:25:07;9.98;;;7.95;;
21239;SDS011;10778;48.962;9.018;2023-03-20T08:27:34;11.80;;;8.00;;
21239;SDS011;10778;48.962;9.018;2023-03-20T08:30:00;9.25;;;7.45;;
21239;SDS011;10778;48.962;9.018;2023-03-20T08:32:27;10.13;;;7.60;;
21239;SDS011;10778;48.962;9.018;2023-03-20T08:34:53;13.98;;;7.60;;
21239;SDS011;10778;48.962;9.018;2023-03-20T08:37:20;9.82;;;7.68;;
21239;SDS011;10778;48.962;9.018;2023-03-20T08:39:46;8.32;;;6.95;;
21239;SDS011;10778;48.962;9.018;2023-03-20T08:42:12;7.72;;;6.45;;
21239;SDS011;10778;48.962;9.018;2023-03-20T08:44:39;7.68;;;6.00;;
21239;SDS011;10778;48.962;9.018;2023-03-20T08:47:05;7.10;;;5.80;;
21239;SDS011;10778;48.962;9.018;2023-03-20T08:49:32;7.40;;;5.63;;
21239;SDS011;10778;48.962;9.018;2023-03-20T08:51:59;6.43;;;4.93;;
21239;SDS011;10778;48.962;9.018;2023-03-20T08:54:25;6.63;;;4.68;;
21239;SDS011;10778;48.962;9.018;2023-03-20T08:56:51;8.48;;;5.03;;
21239;SDS011;10778;48.962;9.018;2023-03-20T08:59:17;6.97;;;5.30;;
21239;SDS011;10778;48.962;9.018;2023-03-20T09:01:44;5.53;;;4.60;;
21239;SDS011;10778;48.962;9.018;2023-03-20T09:04:11;7.25;;;4.40;;
21239;SDS011;10778;48.962;9.018;2023-03-20T09:06:38;5.60;;;4.20;;
21239;SDS011;10778;48.962;9.018;2023-03-20T09:09:05;4.50;;;3.70;;
21239;SDS011;10778;48.962;9.018;2023-03-20T09:11:32;5.68;;;4.13;;
21239;SDS011;10778;48.962;9.018;2023-03-20T09:13:58;6.90;;;4.40;;
21239;SDS011;10778;48.962;9.018;2023-03-20T09:16:25;5.47;;;4.20;;
21239;SDS011;10778;48.962;9.018;2023-03-20T09:18:52;4.80;;;3.75;;
21239;SDS011;10778;48.962;9.018;2023-03-20T09:21:18;6.82;;;4.40;;
21239;SDS011;10778;48.962;9.018;2023-03-20T09:23:44;6.75;;;3.75;;
21239;SDS011;10778;48.962;9.018;2023-03-20T09:26:10;5.47;;;3.80;;
21239;SDS011;10778;48.962;9.018;2023-03-20T09:28:36;4.93;;;3.85;;
21239;SDS011;10778;48.962;9.018;2023-03-20T09:31:02;4.78;;;3.78;;
21239;SDS011;10778;48.962;9.018;2023-03-20T09:33:28;6.20;;;4.18;;
21239;SDS011;10778;48.962;9.018;2023-03-20T09:35:54;5.47;;;3.78;;
21239;SDS011;10778;48.962;9.018;2023-03-20T09:38:20;4.65;;;3.95;;
21239;SDS011;10778;48.962;9.018;2023-03-20T09:51:57;6.65;;;4.03;;
21239;SDS011;10778;48.962;9.018;2023-03-20T09:57:17;5.43;;;3.90;;
21239;SDS011;10778;48.962;9.018;2023-03-20T09:59:47;4.80;;;3.53;;
21239;SDS011;10778;48.962;9.018;2023-03-20T10:02:16;5.10;;;4.18;;
21239;SDS011;10778;48.962;9.018;2023-03-20T10:04:52;5.07;;;4.15;;
21239;SDS011;10778;48.962;9.018;2023-03-20T10:07:20;5.93;;;4.57;;
21239;SDS011;10778;48.962;9.018;2023-03-20T10:09:47;7.15;;;5.00;;
21239;SDS011;10778;48.962;9.018;2023-03-20T10:20:28;8.32;;;4.80;;
21239;SDS011;10778;48.962;9.018;2023-03-20T10:23:05;7.60;;;5.20;;
21239;SDS011;10778;48.962;9.018;2023-03-20T10:25:48;8.18;;;4.85;;
21239;SDS011;10778;48.962;9.018;2023-03-20T10:28:21;7.60;;;5.25;;
21239;SDS011;10778;48.962;9.018;2023-03-20T10:30:59;6.25;;;5.13;;
21239;SDS011;10778;48.962;9.018;2023-03-20T10:33:49;6.60;;;5.05;;
21239;SDS011;10778;48.962;9.018;2023-03-20T10:36:42;8.32;;;6.40;;
21239;SDS011;10778;48.962;9.018;2023-03-20T10:39:36;9.30;;;7.15;;
21239;SDS011;10778;48.962;9.018;2023-03-20T10:42:15;10.40;;;7.65;;
21239;SDS011;10778;48.962;9.018;2023-03-20T10:44:46;9.73;;;7.35;;
21239;SDS011;10778;48.962;9.018;2023-03-20T10:47:17;11.63;;;7.32;;
21239;SDS011;10778;48.962;9.018;2023-03-20T10:49:53;9.43;;;7.10;;
21239;SDS011;10778;48.962;9.018;2023-03-20T10:52:24;10.05;;;6.53;;
21239;SDS011;10778;48.962;9.018;2023-03-20T10:55:04;8.02;;;6.22;;
21239;SDS011;10778;48.962;9.018;2023-03-20T10:57:36;7.97;;;5.70;;
21239;SDS011;10778;48.962;9.018;2023-03-20T11:00:11;8.45;;;5.85;;
21239;SDS011;10778;48.962;9.018;2023-03-20T11:02:44;7.07;;;5.32;;
21239;SDS011;10778;48.962;9.018;2023-03-20T11:05:30;7.65;;;5.22;;
21239;SDS011;10778;48.962;9.018;2023-03-20T11:08:03;6.22;;;4.95;;
21239;SDS011;10778;48.962;9.018;2023-03-20T11:10:33;7.32;;;5.00;;
21239;SDS011;10778;48.962;9.018;2023-03-20T11:13:21;5.95;;;4.72;;
21239;SDS011;10778;48.962;9.018;2023-03-20T11:15:47;6.28;;;4.80;;
21239;SDS011;10778;48.962;9.018;2023-03-20T11:18:16;6.82;;;5.18;;
21239;SDS011;10778;48.962;9.018;2023-03-20T11:20:44;5.75;;;4.68;;
21239;SDS011;10778;48.962;9.018;2023-03-20T11:23:19;6.47;;;4.47;;
21239;SDS011;10778;48.962;9.018;2023-03-20T11:25:51;5.28;;;4.15;;
21239;SDS011;10778;48.962;9.018;2023-03-20T11:28:29;6.22;;;4.35;;
21239;SDS011;10778;48.962;9.018;2023-03-20T11:33:44;7.45;;;4.80;;
21239;SDS011;10778;48.962;9.018;2023-03-20T11:36:20;7.45;;;5.15;;
21239;SDS011;10778;48.962;9.018;2023-03-20T11:38:51;6.68;;;4.72;;
21239;SDS011;10778;48.962;9.018;2023-03-20T11:41:22;5.43;;;4.43;;
21239;SDS011;10778;48.962;9.018;2023-03-20T11:43:50;7.38;;;4.68;;
21239;SDS011;10778;48.962;9.018;2023-03-20T11:46:17;6.80;;;4.63;;
21239;SDS011;10778;48.962;9.018;2023-03-20T11:48:46;5.53;;;4.38;;
21239;SDS011;10778;48.962;9.018;2023-03-20T11:51:15;6.10;;;4.35;;
21239;SDS011;10778;48.962;9.018;2023-03-20T11:56:26;6.60;;;4.40;;
21239;SDS011;10778;48.962;9.018;2023-03-20T12:04:17;6.00;;;4.38;;
21239;SDS011;10778;48.962;9.018;2023-03-20T12:09:58;5.05;;;4.25;;
21239;SDS011;10778;48.962;9.018;2023-03-20T12:12:33;5.75;;;3.72;;
21239;SDS011;10778;48.962;9.018;2023-03-20T12:23:11;4.82;;;3.78;;
21239;SDS011;10778;48.962;9.018;2023-03-20T12:25:43;6.63;;;3.80;;
21239;SDS011;10778;48.962;9.018;2023-03-20T12:33:50;5.60;;;3.72;;
21239;SDS011;10778;48.962;9.018;2023-03-20T12:36:33;5.22;;;3.08;;
21239;SDS011;10778;48.962;9.018;2023-03-20T12:39:04;4.60;;;3.70;;
21239;SDS011;10778;48.962;9.018;2023-03-20T12:41:41;5.35;;;3.65;;
21239;SDS011;10778;48.962;9.018;2023-03-20T12:47:12;4.68;;;3.53;;
21239;SDS011;10778;48.962;9.018;2023-03-20T13:14:30;3.75;;;2.50;;
21239;SDS011;10778;48.962;9.018;2023-03-20T13:17:12;3.85;;;2.33;;
21239;SDS011;10778;48.962;9.018;2023-03-20T13:20:49;3.95;;;2.20;;
21239;SDS011;10778;48.962;9.018;2023-03-20T13:23:04;3.25;;;2.58;;
21239;SDS011;10778;48.962;9.018;2023-03-20T13:28:50;5.20;;;3.63;;
21239;SDS011;10778;48.962;9.018;2023-03-20T13:34:17;4.82;;;3.33;;
21239;SDS011;10778;48.962;9.018;2023-03-20T13:39:30;4.25;;;3.05;;
21239;SDS011;10778;48.962;9.018;2023-03-20T13:42:02;4.15;;;3.03;;
21239;SDS011;10778;48.962;9.018;2023-03-20T13:44:36;3.45;;;2.83;;
21239;SDS011;10778;48.962;9.018;2023-03-20T13:47:20;3.65;;;2.83;;
21239;SDS011;10778;48.962;9.018;2023-03-20T13:52:45;4.22;;;2.72;;
21239;SDS011;10778;48.962;9.018;2023-03-20T13:55:54;3.60;;;3.17;;
21239;SDS011;10778;48.962;9.018;2023-03-20T14:01:14;4.55;;;3.28;;
21239;SDS011;10778;48.962;9.018;2023-03-20T14:03:46;4.00;;;2.85;;
21239;SDS011;10778;48.962;9.018;2023-03-20T14:06:25;4.70;;;3.00;;
21239;SDS011;10778;48.962;9.018;2023-03-20T14:12:07;4.05;;;2.80;;
21239;SDS011;10778;48.962;9.018;2023-03-20T14:15:09;3.40;;;2.50;;
21239;SDS011;10778;48.962;9.018;2023-03-20T14:17:28;3.85;;;3.25;;
21239;SDS011;10778;48.962;9.018;2023-03-20T14:19:57;3.50;;;2.90;;
21239;SDS011;10778;48.962;9.018;2023-03-20T14:22:37;5.10;;;2.97;;
21239;SDS011;10778;48.962;9.018;2023-03-20T14:25:06;4.55;;;3.17;;
21239;SDS011;10778;48.962;9.018;2023-03-20T14:32:57;5.22;;;3.70;;
21239;SDS011;10778;48.962;9.018;2023-03-20T14:35:25;4.43;;;3.25;;
21239;SDS011;10778;48.962;9.018;2023-03-20T14:41:07;4.93;;;2.85;;
21239;SDS011;10778;48.962;9.018;2023-03-20T14:48:50;4.88;;;3.70;;
21239;SDS011;10778;48.962;9.018;2023-03-20T14:51:38;5.72;;;3.83;;
21239;SDS011;10778;48.962;9.018;2023-03-20T14:56:47;5.63;;;3.38;;
21239;SDS011;10778;48.962;9.018;2023-03-20T14:59:15;4.22;;;3.35;;
21239;SDS011;10778;48.962;9.018;2023-03-20T15:01:47;4.28;;;3.30;;
21239;SDS011;10778;48.962;9.018;2023-03-20T15:04:39;5.32;;;3.22;;
21239;SDS011;10778;48.962;9.018;2023-03-20T15:07:16;4.47;;;3.00;;
21239;SDS011;10778;48.962;9.018;2023-03-20T15:09:48;5.15;;;3.00;;
21239;SDS011;10778;48.962;9.018;2023-03-20T15:12:19;4.72;;;2.85;;
21239;SDS011;10778;48.962;9.018;2023-03-20T15:14:53;3.83;;;3.00;;
21239;SDS011;10778;48.962;9.018;2023-03-20T15:17:26;5.15;;;3.22;;
21239;SDS011;10778;48.962;9.018;2023-03-20T15:20:05;4.53;;;3.20;;
21239;SDS011;10778;48.962;9.018;2023-03-20T15:22:56;5.93;;;3.30;;
21239;SDS011;10778;48.962;9.018;2023-03-20T15:25:39;4.47;;;3.25;;
21239;SDS011;10778;48.962;9.018;2023-03-20T15:28:11;5.57;;;3.05;;
21239;SDS011;10778;48.962;9.018;2023-03-20T15:30:41;5.05;;;3.05;;
21239;SDS011;10778;48.962;9.018;2023-03-20T15:33:14;4.10;;;2.83;;
21239;SDS011;10778;48.962;9.018;2023-03-20T15:35:44;4.47;;;3.13;;
21239;SDS011;10778;48.962;9.018;2023-03-20T15:38:11;5.95;;;3.10;;
21239;SDS011;10778;48.962;9.018;2023-03-20T15:40:40;5.03;;;2.80;;
21239;SDS011;10778;48.962;9.018;2023-03-20T15:45:38;3.53;;;2.50;;
21239;SDS011;10778;48.962;9.018;2023-03-20T15:48:06;3.08;;;2.38;;
21239;SDS011;10778;48.962;9.018;2023-03-20T15:50:34;3.13;;;2.28;;
21239;SDS011;10778;48.962;9.018;2023-03-20T15:53:06;2.95;;;2.45;;
21239;SDS011;10778;48.962;9.018;2023-03-20T15:55:35;3.80;;;2.30;;
21239;SDS011;10778;48.962;9.018;2023-03-20T15:58:03;5.13;;;2.47;;
21239;SDS011;10778;48.962;9.018;2023-03-20T16:03:07;4.13;;;2.90;;
21239;SDS011;10778;48.962;9.018;2023-03-20T16:05:38;3.75;;;2.80;;
21239;SDS011;10778;48.962;9.018;2023-03-20T16:08:27;4.50;;;2.40;;
21239;SDS011;10778;48.962;9.018;2023-03-20T16:10:57;4.60;;;2.70;;
21239;SDS011;10778;48.962;9.018;2023-03-20T16:13:26;5.13;;;3.08;;
21239;SDS011;10778;48.962;9.018;2023-03-20T16:15:56;4.55;;;3.10;;
21239;SDS011;10778;48.962;9.018;2023-03-20T16:18:22;3.53;;;2.70;;
21239;SDS011;10778;48.962;9.018;2023-03-20T16:20:53;4.82;;;2.47;;
21239;SDS011;10778;48.962;9.018;2023-03-20T16:23:34;3.72;;;2.70;;
21239;SDS011;10778;48.962;9.018;2023-03-20T16:26:05;3.70;;;2.47;;
21239;SDS011;10778;48.962;9.018;2023-03-20T16:28:34;3.70;;;2.45;;
21239;SDS011;10778;48.962;9.018;2023-03-20T16:33:38;5.45;;;3.22;;
21239;SDS011;10778;48.962;9.018;2023-03-20T16:36:04;4.90;;;2.78;;
21239;SDS011;10778;48.962;9.018;2023-03-20T16:38:32;4.72;;;2.75;;
21239;SDS011;10778;48.962;9.018;2023-03-20T16:41:14;4.47;;;2.45;;
21239;SDS011;10778;48.962;9.018;2023-03-20T16:43:55;3.97;;;2.40;;
21239;SDS011;10778;48.962;9.018;2023-03-20T16:46:23;5.65;;;2.60;;
21239;SDS011;10778;48.962;9.018;2023-03-20T16:48:51;4.32;;;2.50;;
21239;SDS011;10778;48.962;9.018;2023-03-20T16:51:21;3.28;;;2.22;;
21239;SDS011;10778;48.962;9.018;2023-03-20T16:53:55;4.63;;;2.60;;
21239;SDS011;10778;48.962;9.018;2023-03-20T16:56:27;4.13;;;2.65;;
21239;SDS011;10778;48.962;9.018;2023-03-20T16:58:57;5.00;;;2.80;;
21239;SDS011;10778;48.962;9.018;2023-03-20T17:01:26;4.25;;;2.45;;
21239;SDS011;10778;48.962;9.018;2023-03-20T17:03:57;3.10;;;2.40;;
21239;SDS011;10778;48.962;9.018;2023-03-20T17:06:37;4.88;;;2.67;;
21239;SDS011;10778;48.962;9.018;2023-03-20T17:14:42;4.65;;;2.90;;
21239;SDS011;10778;48.962;9.018;2023-03-20T17:17:14;4.22;;;2.85;;
21239;SDS011;10778;48.962;9.018;2023-03-20T17:19:41;7.03;;;3.85;;
21239;SDS011;10778;48.962;9.018;2023-03-20T17:22:15;4.65;;;3.00;;
21239;SDS011;10778;48.962;9.018;2023-03-20T17:24:43;7.65;;;3.70;;
21239;SDS011;10778;48.962;9.018;2023-03-20T17:27:09;4.78;;;3.25;;
21239;SDS011;10778;48.962;9.018;2023-03-20T17:29:37;7.07;;;3.95;;
21239;SDS011;10778;48.962;9.018;2023-03-20T17:32:17;7.80;;;5.47;;
21239;SDS011;10778;48.962;9.018;2023-03-20T17:34:44;7.47;;;4.72;;
21239;SDS011;10778;48.962;9.018;2023-03-20T17:37:11;5.15;;;3.50;;
21239;SDS011;10778;48.962;9.018;2023-03-20T17:39:40;5.63;;;3.60;;
21239;SDS011;10778;48.962;9.018;2023-03-20T17:42:19;6.80;;;4.35;;
21239;SDS011;10778;48.962;9.018;2023-03-20T17:44:49;7.03;;;4.82;;
21239;SDS011;10778;48.962;9.018;2023-03-20T17:47:16;6.13;;;3.55;;
21239;SDS011;10778;48.962;9.018;2023-03-20T17:49:44;8.75;;;4.47;;
21239;SDS011;10778;48.962;9.018;2023-03-20T17:52:14;7.28;;;3.95;;
21239;SDS011;10778;48.962;9.018;2023-03-20T17:54:43;8.45;;;5.07;;
21239;SDS011;10778;48.962;9.018;2023-03-20T17:57:32;9.05;;;5.32;;
21239;SDS011;10778;48.962;9.018;2023-03-20T17:59:55;8.30;;;5.60;;
21239;SDS011;10778;48.962;9.018;2023-03-20T18:02:22;8.55;;;5.03;;
21239;SDS011;10778;48.962;9.018;2023-03-20T18:04:48;7.82;;;5.50;;